createdAt,value
2019-05-14T00:01:51.412Z,3.25
2019-05-14T00:06:55.095Z,3.10
2019-05-14T00:12:02.267Z,3.10
2019-05-14T00:17:05.957Z,3.75
2019-05-14T00:22:11.649Z,3.45
2019-05-14T00:27:18.371Z,3.65
2019-05-14T00:32:24.490Z,3.35
2019-05-14T00:37:32.178Z,3.40
2019-05-14T00:42:36.848Z,3.85
2019-05-14T00:47:41.938Z,3.33
2019-05-14T00:52:51.489Z,3.58
2019-05-14T00:57:56.804Z,3.98
2019-05-14T01:03:02.186Z,3.70
2019-05-14T01:08:07.335Z,4.30
2019-05-14T01:13:12.171Z,4.12
2019-05-14T01:18:16.598Z,4.35
2019-05-14T01:23:21.728Z,4.75
2019-05-14T01:28:27.317Z,4.47
2019-05-14T01:33:32.078Z,4.58
2019-05-14T01:38:36.786Z,4.85
2019-05-14T01:43:42.884Z,5.40
2019-05-14T01:48:47.408Z,5.60
2019-05-14T01:53:52.229Z,5.17
2019-05-14T01:58:58.569Z,5.70
2019-05-14T02:04:03.194Z,5.90
2019-05-14T02:09:11.169Z,5.50
2019-05-14T02:14:17.355Z,5.10
2019-05-14T02:19:23.569Z,5.90
2019-05-14T02:24:28.126Z,6.05
2019-05-14T02:29:32.644Z,5.60
2019-05-14T02:34:40.027Z,5.90
2019-05-14T02:39:45.283Z,6.37
2019-05-14T02:44:49.938Z,6.60
2019-05-14T02:49:58.759Z,6.97
2019-05-14T02:55:04.580Z,6.80
2019-05-14T03:00:10.632Z,7.35
2019-05-14T03:05:19.293Z,6.47
2019-05-14T03:10:23.177Z,6.60
2019-05-14T03:15:30.221Z,6.60
2019-05-14T03:20:39.353Z,6.62
2019-05-14T03:25:49.141Z,7.50
2019-05-14T03:30:53.428Z,7.42
2019-05-14T03:36:07.483Z,7.50
2019-05-14T03:41:09.102Z,7.50
2019-05-14T03:46:13.985Z,7.50
2019-05-14T03:51:31.954Z,7.95
2019-05-14T03:56:39.423Z,8.00
2019-05-14T04:01:43.106Z,8.25
2019-05-14T04:06:49.846Z,7.67
2019-05-14T04:11:59.223Z,8.18
2019-05-14T04:17:13.790Z,9.25
2019-05-14T04:22:19.000Z,8.53
2019-05-14T04:27:25.376Z,8.78
2019-05-14T04:32:31.614Z,9.70
2019-05-14T04:37:39.934Z,9.15
2019-05-14T04:42:44.463Z,9.23
2019-05-14T04:47:49.786Z,9.55
2019-05-14T04:53:05.383Z,9.63
2019-05-14T04:58:03.309Z,9.63
2019-05-14T05:03:12.600Z,10.08
2019-05-14T05:08:15.309Z,9.00
2019-05-14T05:13:19.699Z,9.85
2019-05-14T05:18:24.117Z,9.83
2019-05-14T05:23:28.543Z,9.75
2019-05-14T05:28:32.926Z,10.00
2019-05-14T05:33:38.346Z,9.33
2019-05-14T05:38:43.032Z,9.55
2019-05-14T05:43:48.360Z,9.75
2019-05-14T05:49:00.799Z,9.13
2019-05-14T05:54:24.508Z,9.28
2019-05-14T05:59:29.392Z,9.48
2019-05-14T06:04:35.616Z,9.23
2019-05-14T06:09:40.000Z,8.08
2019-05-14T06:14:44.389Z,7.45
2019-05-14T06:19:48.881Z,7.95
2019-05-14T06:24:53.267Z,7.60
2019-05-14T06:29:58.328Z,8.68
2019-05-14T06:35:04.389Z,7.50
2019-05-14T06:40:09.792Z,7.95
2019-05-14T06:45:14.280Z,8.33
2019-05-14T06:50:19.073Z,8.18
2019-05-14T06:55:23.673Z,7.58
2019-05-14T07:00:28.788Z,8.10
2019-05-14T07:05:35.070Z,8.13
2019-05-14T07:10:39.667Z,8.70
2019-05-14T07:15:44.647Z,7.85
2019-05-14T07:20:49.049Z,7.92
2019-05-14T07:25:53.444Z,7.28
2019-05-14T07:30:59.371Z,6.42
2019-05-14T07:36:04.026Z,6.58
2019-05-14T07:41:09.158Z,5.80
2019-05-14T07:46:13.915Z,5.85
2019-05-14T07:51:19.091Z,6.53
2019-05-14T07:56:23.792Z,3.60
2019-05-14T08:01:28.411Z,4.37
2019-05-14T08:06:32.851Z,4.47
2019-05-14T08:11:38.724Z,4.30
2019-05-14T08:16:43.423Z,5.47
2019-05-14T08:21:48.179Z,5.45
2019-05-14T08:26:52.757Z,6.40
2019-05-14T08:31:58.331Z,6.10
2019-05-14T08:37:04.304Z,6.05
2019-05-14T08:42:09.006Z,6.37
2019-05-14T08:47:13.851Z,6.25
2019-05-14T08:52:19.195Z,5.35
2019-05-14T08:57:23.947Z,5.40
2019-05-14T09:02:28.702Z,5.12
2019-05-14T09:07:33.209Z,5.35
2019-05-14T09:12:38.837Z,5.08
2019-05-14T09:17:43.512Z,4.40
2019-05-14T09:22:48.984Z,4.80
2019-05-14T09:27:53.673Z,4.80
2019-05-14T09:32:59.421Z,4.30
2019-05-14T09:38:04.062Z,4.62
2019-05-14T09:43:09.193Z,4.60
2019-05-14T09:48:13.785Z,3.80
2019-05-14T09:53:18.274Z,4.47
2019-05-14T09:58:22.662Z,3.85
2019-05-14T10:03:27.287Z,4.15
2019-05-14T10:08:31.720Z,3.90
2019-05-14T10:13:36.124Z,3.75
2019-05-14T10:18:40.510Z,4.20
2019-05-14T10:23:45.091Z,3.70
2019-05-14T10:28:49.560Z,3.50
2019-05-14T10:33:54.022Z,3.70
2019-05-14T10:38:59.084Z,3.72
2019-05-14T10:44:03.551Z,4.03
2019-05-14T10:49:19.946Z,3.87
2019-05-14T10:54:23.658Z,3.58
2019-05-14T10:59:20.455Z,3.87
2019-05-14T11:04:24.863Z,4.30
2019-05-14T11:09:29.285Z,3.92
2019-05-14T11:14:33.828Z,3.90
2019-05-14T11:19:38.998Z,3.35
2019-05-14T11:25:03.506Z,3.80
2019-05-14T11:30:09.116Z,3.80
2019-05-14T11:35:13.913Z,4.15
2019-05-14T11:40:19.969Z,4.20
2019-05-14T11:45:26.358Z,4.47
2019-05-14T11:50:30.802Z,4.20
2019-05-14T11:55:35.262Z,4.08
2019-05-14T12:00:39.722Z,3.98
2019-05-14T12:05:44.216Z,4.45
2019-05-14T12:10:48.656Z,4.53
2019-05-14T12:15:53.090Z,4.37
2019-05-14T12:20:59.420Z,4.92
2019-05-14T12:26:03.734Z,4.80
2019-05-14T12:31:09.381Z,4.35
2019-05-14T12:36:14.058Z,4.60
2019-05-14T12:41:19.415Z,4.67
2019-05-14T12:46:24.079Z,4.40
2019-05-14T12:51:28.589Z,4.70
2019-05-14T12:56:33.062Z,4.62
2019-05-14T13:01:37.476Z,4.37
2019-05-14T13:06:41.929Z,5.20
2019-05-14T13:11:48.043Z,4.60
2019-05-14T13:16:54.564Z,5.15
2019-05-14T13:22:13.076Z,5.40
2019-05-14T13:27:05.368Z,5.37
2019-05-14T13:32:12.315Z,5.53
2019-05-14T13:37:16.052Z,5.33
2019-05-14T13:42:20.461Z,4.92
2019-05-14T13:47:25.245Z,5.50
2019-05-14T13:52:29.639Z,5.50
2019-05-14T13:57:34.016Z,5.72
2019-05-14T14:02:38.514Z,6.75
2019-05-14T14:07:44.840Z,6.80
2019-05-14T14:12:49.823Z,5.80
2019-05-14T14:17:54.524Z,5.62
2019-05-14T14:23:09.200Z,6.10
2019-05-14T14:28:05.118Z,8.70
2019-05-14T14:33:09.592Z,10.32
2019-05-14T14:38:14.038Z,10.13
2019-05-14T14:43:18.996Z,5.70
2019-05-14T14:48:23.654Z,7.15
2019-05-14T14:53:46.104Z,5.83
2019-05-14T14:58:34.172Z,6.03
2019-05-14T15:03:38.886Z,6.00
2019-05-14T15:08:43.330Z,5.87
2019-05-14T15:13:48.248Z,5.40
2019-05-14T15:18:52.958Z,5.60
2019-05-14T15:24:09.412Z,5.37
2019-05-14T15:29:03.752Z,5.37
2019-05-14T15:34:09.021Z,5.45
2019-05-14T15:39:13.633Z,7.08
2019-05-14T15:44:19.564Z,4.53
2019-05-14T15:49:25.331Z,4.03
2019-05-14T15:54:42.470Z,4.80
2019-05-14T15:59:35.935Z,4.75
2019-05-14T16:04:40.541Z,4.80
2019-05-14T16:09:44.970Z,4.22
2019-05-14T16:14:49.805Z,5.00
2019-05-14T16:19:54.294Z,4.33
2019-05-14T16:25:00.954Z,4.87
2019-05-14T16:30:09.429Z,4.80
2019-05-14T16:35:13.414Z,4.60
2019-05-14T16:40:19.195Z,4.75
2019-05-14T16:45:28.911Z,4.55
2019-05-14T16:50:33.554Z,4.12
2019-05-14T16:55:38.501Z,4.90
2019-05-14T17:00:43.118Z,4.72
2019-05-14T17:05:48.683Z,4.40
2019-05-14T17:10:53.240Z,4.80
2019-05-14T17:15:58.912Z,4.75
2019-05-14T17:21:04.981Z,4.85
2019-05-14T17:26:09.414Z,4.30
2019-05-14T17:31:13.844Z,4.85
2019-05-14T17:36:18.877Z,4.50
2019-05-14T17:41:23.625Z,9.30
2019-05-14T17:46:28.970Z,5.28
2019-05-14T17:51:33.672Z,4.87
2019-05-14T17:56:39.046Z,5.08
2019-05-14T18:01:44.846Z,5.42
2019-05-14T18:06:49.362Z,8.15
2019-05-14T18:11:53.819Z,5.33
2019-05-14T18:16:58.624Z,6.65
2019-05-14T18:22:03.214Z,14.43
2019-05-14T18:27:08.343Z,11.35
2019-05-14T18:32:12.981Z,10.90
2019-05-14T18:37:18.288Z,6.30
2019-05-14T18:42:22.956Z,6.92
2019-05-14T18:47:29.048Z,6.37
2019-05-14T18:52:35.482Z,7.37
2019-05-14T18:57:39.895Z,6.70
2019-05-14T19:02:44.253Z,5.78
2019-05-14T19:07:48.860Z,7.40
2019-05-14T19:12:54.125Z,11.35
2019-05-14T19:18:01.193Z,8.50
2019-05-14T19:23:04.618Z,15.00
2019-05-14T19:28:09.219Z,17.92
2019-05-14T19:33:13.704Z,11.78
2019-05-14T19:38:21.679Z,11.22
2019-05-14T19:43:31.572Z,7.75
2019-05-14T19:48:41.518Z,6.40
2019-05-14T19:53:54.849Z,7.33
2019-05-14T19:58:59.843Z,6.15
2019-05-14T20:04:31.111Z,6.78
2019-05-14T20:09:39.062Z,9.73
2019-05-14T20:14:44.675Z,7.37
2019-05-14T20:19:51.917Z,6.53
2019-05-14T20:25:11.551Z,6.10
2019-05-14T20:30:04.515Z,6.95
2019-05-14T20:35:10.543Z,6.25
2019-05-14T20:40:30.488Z,6.00
2019-05-14T20:45:38.949Z,6.58
2019-05-14T20:50:47.827Z,6.72
2019-05-14T20:55:54.084Z,6.92
2019-05-14T21:01:02.427Z,7.22
2019-05-14T21:06:09.050Z,7.10
2019-05-14T21:11:19.108Z,6.45
2019-05-14T21:16:28.416Z,6.15
2019-05-14T21:21:45.604Z,6.67
2019-05-14T21:26:51.861Z,7.15
2019-05-14T21:32:01.351Z,7.20
2019-05-14T21:37:06.181Z,7.00
2019-05-14T21:42:12.569Z,6.85
2019-05-14T21:47:22.488Z,7.42
2019-05-14T21:52:29.031Z,7.30
2019-05-14T21:57:37.924Z,7.03
2019-05-14T22:02:49.107Z,7.60
2019-05-14T22:07:53.102Z,7.20
2019-05-14T22:12:59.562Z,7.83
2019-05-14T22:18:14.931Z,7.85
2019-05-14T22:23:13.989Z,7.78
2019-05-14T22:28:19.062Z,6.75
2019-05-14T22:33:28.318Z,7.12
2019-05-14T22:38:32.632Z,9.08
2019-05-14T22:43:43.614Z,8.40
2019-05-14T22:48:51.266Z,7.42
2019-05-14T22:53:58.858Z,7.42
2019-05-14T22:59:03.445Z,7.25
2019-05-14T23:04:08.997Z,7.03
2019-05-14T23:09:18.447Z,7.22
2019-05-14T23:14:20.457Z,7.17
2019-05-14T23:19:25.234Z,7.25
2019-05-14T23:24:31.407Z,7.33
2019-05-14T23:29:39.405Z,7.12
2019-05-14T23:34:45.150Z,6.80
2019-05-14T23:39:51.056Z,7.20
2019-05-14T23:44:59.361Z,7.55
2019-05-14T23:50:04.211Z,7.60
2019-05-14T23:55:12.495Z,7.83
